Gentle Leader — C6WY9 — position and weather

sailwx.info

Track history (hours):
 
Tides and Currents Weather Stations Pressure Air Temp Water Temp Dewpoint Dewpoint Depression Visibility Wind Speed Wind Dir Waves Ship Positions

Gentle Leader

Last reported at 2018-Feb-15 23:00 UTC. Time now 2018-Feb-19 14:23 UTC.
Position N 34°42' W 165°42'.

Length 200 m; draft 8 m.

Type: Cargo ship. MMSI: 311003300.

Wind from 140 at 14 knots

Barometer 1016.0 mb
Air temperature 17.0 ° C
Visibility: greater than 2.2 NM
Water temperature 15.0 ° C

Date/timePositionNaut miles runAvg speedWind from/ knotsBaromVisibWave heightAir tempDewpointWater temp
2018-Feb-15 23:00N 34°42' W 165°42'   140 / 141016.0 2.2 17.0 15.0
2018-Feb-10 09:03N 36°52' W 130°41'112.9
2018-Feb-10 08:59N 36°52' W 130°40'38712.9
2018-Feb-09 03:00N 37°46' W 122°38'1212.4
2018-Feb-09 02:00N 37°53' W 122°25'3 0.1
2018-Feb-08 03:00N 37°54' W 122°22'3 5.3
2018-Feb-08 02:30N 37°55' W 122°25'10 9.9
2018-Feb-08 01:30N 37°47' W 122°34'612.5
2018-Feb-08 01:00N 37°46' W 122°41'4 8.0
2018-Feb-08 00:30N 37°46' W 122°46'4 8.0
2018-Feb-08 00:00N 37°48' W 122°50'5 9.1
2018-Feb-07 23:30N 37°50' W 122°55'5 9.6
2018-Feb-07 23:00N 37°53' W 123°01'4 8.8
2018-Feb-07 22:30N 37°55' W 123°06'4 8.9
2018-Feb-07 22:00N 37°57' W 123°10'4 9.1
2018-Feb-07 21:31N 38°01' W 123°14'43112.2
2018-Feb-06 10:16N 45°08' W 124°29'415.2
2018-Feb-06 10:00N 45°12' W 124°28'815.2
2018-Feb-06 09:30N 45°19' W 124°27'1715.2
2018-Feb-06 08:23N 45°36' W 124°24'2115.0
2018-Feb-06 07:00N 45°57' W 124°19'1814.4
2018-Feb-06 05:45N 46°13' W 124°08'3111.3
2018-Feb-06 03:00N 46°09' W 123°24'713.2
2018-Feb-06 02:30N 46°10' W 123°14'1212.0
2018-Feb-06 01:30N 46°06' W 122°58'611.2
2018-Feb-06 01:00N 46°02' W 122°53'612.2
2018-Feb-06 00:30N 45°57' W 122°48'714.1
2018-Feb-06 00:00N 45°50' W 122°48'714.3
2018-Feb-05 23:30N 45°43' W 122°46'  
Track history (hours):
 
Tides and Currents Weather Stations Pressure Air Temp Water Temp Dewpoint Dewpoint Depression Visibility Wind Speed Wind Dir Waves Ship Positions

Gentle Leader

Last reported at 2018-Feb-15 23:00 UTC. Time now 2018-Feb-19 14:23 UTC.
Position N 34°42' W 165°42'.

Length 200 m; draft 8 m.

Type: Cargo ship. MMSI: 311003300.

Wind from 140 at 14 knots

Barometer 1016.0 mb
Air temperature 17.0 ° C
Visibility: greater than 2.2 NM
Water temperature 15.0 ° C

Date/timePositionNaut miles runAvg speedWind from/ knotsBaromVisibWave heightAir tempDewpointWater temp
2018-Feb-15 23:00N 34°42' W 165°42'   140 / 141016.0 2.2 17.0 15.0
2018-Feb-10 09:03N 36°52' W 130°41'112.9
2018-Feb-10 08:59N 36°52' W 130°40'38712.9
2018-Feb-09 03:00N 37°46' W 122°38'1212.4
2018-Feb-09 02:00N 37°53' W 122°25'3 0.1
2018-Feb-08 03:00N 37°54' W 122°22'3 5.3
2018-Feb-08 02:30N 37°55' W 122°25'10 9.9
2018-Feb-08 01:30N 37°47' W 122°34'612.5
2018-Feb-08 01:00N 37°46' W 122°41'4 8.0
2018-Feb-08 00:30N 37°46' W 122°46'4 8.0
2018-Feb-08 00:00N 37°48' W 122°50'5 9.1
2018-Feb-07 23:30N 37°50' W 122°55'5 9.6
2018-Feb-07 23:00N 37°53' W 123°01'4 8.8
2018-Feb-07 22:30N 37°55' W 123°06'4 8.9
2018-Feb-07 22:00N 37°57' W 123°10'4 9.1
2018-Feb-07 21:31N 38°01' W 123°14'43112.2
2018-Feb-06 10:16N 45°08' W 124°29'415.2
2018-Feb-06 10:00N 45°12' W 124°28'815.2
2018-Feb-06 09:30N 45°19' W 124°27'1715.2
2018-Feb-06 08:23N 45°36' W 124°24'2115.0
2018-Feb-06 07:00N 45°57' W 124°19'1814.4
2018-Feb-06 05:45N 46°13' W 124°08'3111.3
2018-Feb-06 03:00N 46°09' W 123°24'713.2
2018-Feb-06 02:30N 46°10' W 123°14'1212.0
2018-Feb-06 01:30N 46°06' W 122°58'611.2
2018-Feb-06 01:00N 46°02' W 122°53'612.2
2018-Feb-06 00:30N 45°57' W 122°48'714.1
2018-Feb-06 00:00N 45°50' W 122°48'714.3
2018-Feb-05 23:30N 45°43' W 122°46'  

Dump ship's entire track history